createdAt,value
2019-02-10T00:01:30.918Z,11.10
2019-02-10T00:05:45.699Z,11.20
2019-02-10T00:10:02.472Z,10.00
2019-02-10T00:14:16.913Z,10.30
2019-02-10T00:18:33.570Z,10.70
2019-02-10T00:22:47.769Z,10.60
2019-02-10T00:27:02.383Z,10.60
2019-02-10T00:31:16.729Z,9.40
2019-02-10T00:35:31.317Z,10.40
2019-02-10T00:39:45.862Z,11.10
2019-02-10T00:44:08.579Z,11.70
2019-02-10T00:48:29.442Z,11.70
2019-02-10T00:52:50.296Z,11.80
2019-02-10T00:57:04.393Z,11.80
2019-02-10T01:01:05.479Z,11.20
2019-02-10T01:05:06.873Z,11.10
2019-02-10T01:09:29.719Z,10.00
2019-02-10T01:13:50.515Z,9.20
2019-02-10T01:18:11.266Z,9.40
2019-02-10T01:22:32.096Z,10.40
2019-02-10T01:26:52.930Z,10.00
2019-02-10T01:31:13.777Z,10.40
2019-02-10T01:35:34.616Z,10.30
2019-02-10T01:40:17.113Z,9.50
2019-02-10T01:44:37.964Z,9.80
2019-02-10T01:48:58.927Z,9.70
2019-02-10T01:53:19.766Z,9.90
2019-02-10T01:57:20.754Z,9.90
2019-02-10T02:01:41.588Z,10.00
2019-02-10T02:06:02.426Z,9.00
2019-02-10T02:10:23.167Z,8.60
2019-02-10T02:14:43.907Z,8.50
2019-02-10T02:23:33.631Z,9.10
2019-02-10T02:27:54.456Z,9.10
2019-02-10T02:32:15.208Z,10.00
2019-02-10T02:41:04.896Z,9.70
2019-02-10T02:45:47.412Z,10.30
2019-02-10T02:50:09.138Z,9.40
2019-02-10T02:54:23.102Z,9.70
2019-02-10T02:58:37.551Z,8.20
2019-02-10T03:02:52.197Z,7.80
2019-02-10T03:07:06.616Z,7.80
2019-02-10T03:11:21.311Z,10.00
2019-02-10T03:15:36.125Z,9.70
2019-02-10T03:19:50.566Z,10.80
2019-02-10T03:24:05.230Z,10.80
2019-02-10T03:28:06.288Z,10.70
2019-02-10T03:32:27.043Z,9.90
2019-02-10T03:36:47.843Z,8.20
2019-02-10T03:41:08.652Z,8.20
2019-02-10T03:45:29.502Z,8.30
2019-02-10T03:49:50.357Z,8.40
2019-02-10T03:54:11.196Z,8.10
2019-02-10T03:58:25.821Z,7.90
2019-02-10T04:02:26.708Z,8.50
2019-02-10T04:06:47.562Z,8.00
2019-02-10T04:11:08.523Z,7.70
2019-02-10T04:15:29.481Z,7.40
2019-02-10T04:19:30.461Z,7.30
2019-02-10T04:23:51.163Z,7.50
2019-02-10T04:28:11.887Z,7.10
2019-02-10T04:32:32.640Z,7.30
2019-02-10T04:36:53.482Z,7.30
2019-02-10T04:41:14.223Z,7.00
2019-02-10T04:45:34.946Z,7.60
2019-02-10T04:49:35.901Z,7.90
2019-02-10T04:53:56.736Z,7.50
2019-02-10T04:58:11.231Z,7.70
2019-02-10T05:02:25.871Z,7.90
2019-02-10T05:06:39.758Z,8.20
2019-02-10T05:10:53.517Z,8.10
2019-02-10T05:15:08.063Z,8.10
2019-02-10T05:19:22.501Z,7.70
2019-02-10T05:23:37.223Z,7.90
2019-02-10T05:27:51.955Z,7.40
2019-02-10T05:32:06.538Z,7.30
2019-02-10T05:36:07.543Z,7.60
2019-02-10T05:40:08.522Z,8.10
2019-02-10T05:44:29.324Z,7.60
2019-02-10T05:48:50.169Z,7.70
2019-02-10T05:53:10.928Z,7.30
2019-02-10T05:57:25.070Z,7.80
2019-02-10T06:02:25.574Z,7.60
2019-02-10T06:06:46.416Z,7.90
2019-02-10T06:10:47.296Z,7.80
2019-02-10T06:15:08.300Z,8.10
2019-02-10T06:19:09.188Z,7.70
2019-02-10T06:23:10.041Z,8.30
2019-02-10T06:27:10.930Z,8.50
2019-02-10T06:31:31.705Z,7.80
2019-02-10T06:35:52.462Z,7.70
2019-02-10T06:40:13.187Z,7.50
2019-02-10T06:44:33.927Z,7.60
2019-02-10T06:48:54.761Z,7.60
2019-02-10T06:53:15.587Z,7.60
2019-02-10T06:57:29.501Z,7.80
2019-02-10T07:01:46.156Z,7.50
2019-02-10T07:06:00.681Z,7.70
2019-02-10T07:10:15.389Z,7.60
2019-02-10T07:14:29.877Z,7.10
2019-02-10T07:18:44.547Z,7.40
2019-02-10T07:22:59.265Z,7.30
2019-02-10T07:27:14.356Z,7.60
2019-02-10T07:31:28.355Z,7.40
2019-02-10T07:35:45.507Z,8.40
2019-02-10T07:39:59.522Z,7.20
2019-02-10T07:44:13.859Z,7.60
2019-02-10T07:48:36.562Z,7.60
2019-02-10T07:53:19.110Z,7.60
2019-02-10T07:57:33.584Z,8.10
2019-02-10T08:01:48.212Z,8.10
2019-02-10T08:06:02.756Z,7.70
2019-02-10T08:10:17.274Z,7.90
2019-02-10T08:14:31.630Z,8.10
2019-02-10T08:18:46.310Z,7.90
2019-02-10T08:23:00.776Z,8.10
2019-02-10T08:27:15.548Z,8.20
2019-02-10T08:31:30.146Z,8.60
2019-02-10T08:35:44.614Z,8.00
2019-02-10T08:39:59.349Z,8.10
2019-02-10T08:44:14.442Z,8.20
2019-02-10T08:48:28.959Z,8.40
2019-02-10T08:52:51.542Z,8.00
2019-02-10T08:56:59.883Z,8.40
2019-02-10T09:01:14.406Z,8.20
2019-02-10T09:05:29.274Z,8.30
2019-02-10T09:09:43.063Z,8.50
2019-02-10T09:18:11.046Z,8.70
2019-02-10T09:22:31.805Z,8.40
2019-02-10T09:26:52.579Z,8.30
2019-02-10T09:31:13.406Z,8.60
2019-02-10T09:35:34.238Z,8.50
2019-02-10T09:39:54.983Z,8.60
2019-02-10T09:44:15.730Z,8.90
2019-02-10T09:48:36.573Z,8.60
2019-02-10T09:52:57.351Z,8.80
2019-02-10T09:57:11.995Z,8.50
2019-02-10T10:01:14.726Z,9.00
2019-02-10T10:05:35.986Z,9.00
2019-02-10T10:09:56.908Z,8.90
2019-02-10T10:14:17.679Z,9.30
2019-02-10T10:18:38.545Z,8.90
2019-02-10T10:22:59.286Z,9.30
2019-02-10T10:27:20.193Z,9.20
2019-02-10T10:31:41.079Z,9.00
2019-02-10T10:36:02.023Z,9.30
2019-02-10T10:40:23.202Z,9.20
2019-02-10T10:44:43.976Z,9.20
2019-02-10T10:49:04.834Z,9.20
2019-02-10T10:53:25.584Z,9.30
2019-02-10T10:57:40.302Z,9.60
2019-02-10T11:01:41.380Z,9.60
2019-02-10T11:06:02.453Z,9.50
2019-02-10T11:10:23.405Z,9.70
2019-02-10T11:14:44.185Z,9.80
2019-02-10T11:18:45.065Z,9.60
2019-02-10T11:23:05.829Z,9.20
2019-02-10T11:27:26.557Z,9.30
2019-02-10T11:31:27.560Z,9.50
2019-02-10T11:35:48.469Z,9.30
2019-02-10T11:40:12.906Z,9.70
2019-02-10T11:44:33.768Z,9.70
2019-02-10T11:48:54.699Z,10.00
2019-02-10T11:53:15.513Z,9.70
2019-02-10T11:57:16.427Z,9.30
2019-02-10T12:01:37.260Z,9.80
2019-02-10T12:05:38.193Z,9.40
2019-02-10T12:09:39.328Z,9.60
2019-02-10T12:14:00.195Z,9.30
2019-02-10T12:18:20.964Z,9.60
2019-02-10T12:22:49.691Z,9.80
2019-02-10T12:27:04.468Z,9.80
2019-02-10T12:31:25.890Z,9.40
2019-02-10T12:35:46.728Z,9.50
2019-02-10T12:39:47.699Z,9.90
2019-02-10T12:43:48.674Z,9.70
2019-02-10T12:52:38.909Z,9.70
2019-02-10T12:56:54.811Z,10.20
2019-02-10T13:01:08.664Z,9.90
2019-02-10T13:05:26.259Z,9.70
2019-02-10T13:09:41.179Z,10.30
2019-02-10T13:13:55.738Z,10.10
2019-02-10T13:18:12.562Z,9.70
2019-02-10T13:22:26.914Z,10.00
2019-02-10T13:31:16.713Z,9.90
2019-02-10T13:35:39.783Z,9.80
2019-02-10T13:40:00.511Z,9.80
2019-02-10T13:44:21.269Z,9.80
2019-02-10T13:48:42.103Z,9.70
2019-02-10T13:53:02.975Z,10.00
2019-02-10T13:57:18.922Z,10.10
2019-02-10T14:01:33.177Z,10.30
2019-02-10T14:05:47.606Z,10.30
2019-02-10T14:10:02.372Z,10.90
2019-02-10T14:14:16.845Z,10.20
2019-02-10T14:18:31.632Z,10.10
2019-02-10T14:22:45.552Z,9.70
2019-02-10T14:27:05.901Z,9.90
2019-02-10T14:31:20.081Z,9.90
2019-02-10T14:35:34.562Z,10.00
2019-02-10T14:39:50.040Z,10.00
2019-02-10T14:44:04.828Z,9.70
2019-02-10T14:48:06.009Z,9.60
2019-02-10T14:52:26.877Z,9.30
2019-02-10T14:56:44.007Z,10.10
2019-02-10T15:00:58.162Z,9.60
2019-02-10T15:05:12.802Z,9.80
2019-02-10T15:09:27.386Z,10.20
2019-02-10T15:13:42.208Z,10.10
2019-02-10T15:17:56.213Z,9.40
2019-02-10T15:22:10.466Z,9.20
2019-02-10T15:26:25.007Z,9.40
2019-02-10T15:30:38.825Z,8.70
2019-02-10T15:34:53.566Z,9.20
2019-02-10T15:39:10.284Z,8.70
2019-02-10T15:43:25.116Z,8.80
2019-02-10T15:47:39.781Z,8.80
2019-02-10T15:51:54.435Z,9.30
2019-02-10T15:56:08.940Z,9.70
2019-02-10T16:00:23.588Z,9.60
2019-02-10T16:04:38.071Z,9.70
2019-02-10T16:08:52.896Z,9.30
2019-02-10T16:13:07.855Z,9.20
2019-02-10T16:17:08.750Z,8.50
2019-02-10T16:21:29.506Z,8.60
2019-02-10T16:25:50.235Z,8.60
2019-02-10T16:30:12.420Z,8.70
